createdAt,value
2018-08-09T00:02:26.056Z,9.70
2018-08-09T00:04:54.151Z,10.30
2018-08-09T00:07:22.204Z,8.35
2018-08-09T00:09:50.220Z,8.77
2018-08-09T00:12:18.243Z,9.07
2018-08-09T00:14:46.289Z,9.93
2018-08-09T00:17:14.348Z,9.53
2018-08-09T00:19:42.383Z,10.53
2018-08-09T00:22:10.407Z,9.07
2018-08-09T00:24:38.420Z,10.23
2018-08-09T00:27:06.608Z,9.10
2018-08-09T00:29:34.621Z,9.60
2018-08-09T00:32:02.638Z,8.57
2018-08-09T00:34:30.660Z,9.40
2018-08-09T00:36:58.696Z,10.37
2018-08-09T00:39:26.732Z,9.90
2018-08-09T00:41:54.763Z,8.93
2018-08-09T00:44:22.788Z,9.47
2018-08-09T00:46:50.823Z,8.73
2018-08-09T00:49:18.992Z,9.10
2018-08-09T00:51:47.012Z,10.50
2018-08-09T00:54:15.059Z,9.67
2018-08-09T00:56:43.073Z,10.40
2018-08-09T00:59:11.096Z,10.58
2018-08-09T01:01:39.141Z,10.17
2018-08-09T01:04:07.164Z,9.83
2018-08-09T01:06:35.193Z,10.23
2018-08-09T01:09:06.784Z,9.87
2018-08-09T01:11:41.384Z,9.77
2018-08-09T01:14:09.412Z,10.73
2018-08-09T01:16:37.463Z,9.97
2018-08-09T01:19:05.487Z,10.30
2018-08-09T01:21:33.702Z,9.87
2018-08-09T01:24:01.796Z,9.57
2018-08-09T01:26:29.855Z,10.27
2018-08-09T01:28:57.873Z,10.20
2018-08-09T01:31:33.221Z,10.50
2018-08-09T01:34:02.138Z,11.00
2018-08-09T01:36:30.191Z,10.63
2018-08-09T01:38:58.215Z,10.53
2018-08-09T01:41:26.659Z,11.60
2018-08-09T01:43:56.976Z,10.40
2018-08-09T01:46:25.419Z,11.00
2018-08-09T01:48:53.828Z,9.63
2018-08-09T01:51:21.844Z,9.27
2018-08-09T01:53:50.468Z,9.65
2018-08-09T01:56:18.497Z,9.25
2018-08-09T01:58:46.732Z,10.80
2018-08-09T02:01:14.916Z,12.25
2018-08-09T02:03:43.360Z,11.17
2018-08-09T02:06:11.395Z,11.53
2018-08-09T02:08:39.416Z,10.67
2018-08-09T02:11:08.192Z,10.30
2018-08-09T02:13:36.212Z,11.87
2018-08-09T02:16:04.996Z,9.97
2018-08-09T02:18:33.048Z,10.63
2018-08-09T02:21:01.090Z,9.50
2018-08-09T02:23:29.121Z,11.67
2018-08-09T02:25:57.147Z,10.17
2018-08-09T02:28:25.173Z,10.23
2018-08-09T02:30:53.202Z,9.50
2018-08-09T02:33:21.219Z,9.38
2018-08-09T02:35:49.236Z,9.53
2018-08-09T02:38:17.261Z,9.68
2018-08-09T02:40:45.285Z,10.23
2018-08-09T02:43:13.302Z,10.88
2018-08-09T02:45:41.332Z,12.47
2018-08-09T02:48:09.362Z,14.10
2018-08-09T02:50:37.389Z,11.73
2018-08-09T02:53:05.417Z,10.97
2018-08-09T02:55:33.475Z,10.97
2018-08-09T02:58:01.513Z,11.33
2018-08-09T03:00:29.552Z,10.87
2018-08-09T03:02:57.594Z,10.33
2018-08-09T03:05:25.625Z,10.40
2018-08-09T03:07:53.645Z,10.70
2018-08-09T03:10:21.659Z,9.20
2018-08-09T03:12:49.681Z,10.67
2018-08-09T03:15:17.717Z,10.67
2018-08-09T03:17:45.764Z,10.23
2018-08-09T03:20:13.802Z,9.83
2018-08-09T03:22:41.947Z,11.60
2018-08-09T03:25:09.984Z,11.10
2018-08-09T03:27:38.021Z,10.43
2018-08-09T03:30:06.489Z,10.40
2018-08-09T03:32:34.524Z,11.40
2018-08-09T03:35:02.640Z,11.03
2018-08-09T03:37:30.680Z,11.57
2018-08-09T03:39:58.712Z,12.33
2018-08-09T03:42:26.747Z,11.33
2018-08-09T03:44:54.931Z,11.63
2018-08-09T03:47:22.984Z,11.40
2018-08-09T03:49:51.032Z,11.27
2018-08-09T03:52:19.064Z,11.28
2018-08-09T03:54:47.101Z,11.33
2018-08-09T03:57:15.161Z,11.20
2018-08-09T03:59:43.265Z,11.83
2018-08-09T04:02:11.258Z,12.10
2018-08-09T04:04:39.290Z,10.57
2018-08-09T04:07:07.312Z,9.37
2018-08-09T04:09:35.349Z,10.53
2018-08-09T04:12:03.535Z,10.87
2018-08-09T04:14:31.436Z,12.77
2018-08-09T04:16:59.488Z,10.70
2018-08-09T04:19:27.524Z,10.67
2018-08-09T04:21:55.564Z,11.23
2018-08-09T04:24:23.761Z,12.80
2018-08-09T04:26:51.820Z,11.90
2018-08-09T04:29:19.853Z,11.48
2018-08-09T04:31:47.892Z,11.03
2018-08-09T04:34:15.932Z,11.38
2018-08-09T04:36:43.968Z,11.27
2018-08-09T04:39:11.992Z,10.73
2018-08-09T04:41:40.015Z,10.87
2018-08-09T04:44:08.064Z,12.57
2018-08-09T04:46:36.090Z,10.70
2018-08-09T04:49:04.908Z,11.43
2018-08-09T04:51:32.952Z,12.70
2018-08-09T04:54:01.008Z,12.97
2018-08-09T04:56:29.029Z,14.33
2018-08-09T04:58:57.069Z,12.93
2018-08-09T05:01:25.108Z,13.10
2018-08-09T05:03:53.128Z,14.90
2018-08-09T05:06:21.197Z,13.03
2018-08-09T05:08:49.236Z,15.43
2018-08-09T05:11:17.288Z,16.77
2018-08-09T05:13:45.325Z,13.33
2018-08-09T05:16:13.368Z,14.38
2018-08-09T05:18:41.416Z,14.33
2018-08-09T05:21:10.203Z,12.13
2018-08-09T05:23:38.240Z,12.43
2018-08-09T05:26:06.424Z,12.17
2018-08-09T05:28:34.444Z,12.73
2018-08-09T05:31:02.468Z,12.87
2018-08-09T05:33:30.653Z,14.10
2018-08-09T05:35:58.672Z,15.33
2018-08-09T05:38:26.703Z,9.85
2018-08-09T05:43:29.940Z,14.13
2018-08-09T05:45:57.964Z,16.87
2018-08-09T05:48:26.002Z,16.03
2018-08-09T05:50:54.239Z,14.30
2018-08-09T05:53:22.267Z,17.77
2018-08-09T05:55:50.284Z,14.80
2018-08-09T05:58:18.332Z,14.75
2018-08-09T06:00:46.356Z,17.10
2018-08-09T06:03:14.416Z,16.82
2018-08-09T06:05:42.519Z,17.63
2018-08-09T06:08:10.468Z,21.03
2018-08-09T06:10:38.503Z,18.43
2018-08-09T06:13:06.562Z,17.62
2018-08-09T06:15:34.594Z,18.33
2018-08-09T06:18:02.629Z,18.87
2018-08-09T06:20:30.700Z,21.50
2018-08-09T06:22:58.884Z,18.70
2018-08-09T06:25:26.912Z,19.97
2018-08-09T06:27:55.065Z,19.57
2018-08-09T06:30:23.084Z,20.27
2018-08-09T06:32:51.104Z,18.23
2018-08-09T06:35:19.121Z,18.98
2018-08-09T06:37:47.148Z,18.10
2018-08-09T06:40:15.169Z,19.47
2018-08-09T06:42:44.263Z,17.63
2018-08-09T06:45:12.495Z,17.27
2018-08-09T06:47:40.589Z,14.50
2018-08-09T06:50:09.848Z,18.33
2018-08-09T06:52:37.992Z,16.57
2018-08-09T06:55:06.079Z,15.60
2018-08-09T06:57:34.292Z,15.03
2018-08-09T07:00:02.424Z,17.37
2018-08-09T07:02:30.452Z,15.27
2018-08-09T07:04:58.472Z,17.13
2018-08-09T07:07:26.500Z,16.47
2018-08-09T07:09:54.532Z,15.20
2018-08-09T07:12:22.540Z,15.83
2018-08-09T07:14:50.544Z,16.17
2018-08-09T07:17:18.556Z,14.20
2018-08-09T07:19:46.573Z,14.43
2018-08-09T07:22:14.610Z,13.83
2018-08-09T07:24:42.628Z,16.27
2018-08-09T07:27:10.652Z,15.27
2018-08-09T07:29:38.660Z,14.07
2018-08-09T07:32:06.954Z,14.40
2018-08-09T07:34:34.968Z,13.43
2018-08-09T07:37:02.992Z,11.97
2018-08-09T07:39:31.068Z,12.13
2018-08-09T07:41:59.040Z,10.53
2018-08-09T07:44:27.064Z,11.80
2018-08-09T07:46:55.085Z,10.00
2018-08-09T07:49:23.102Z,11.73
2018-08-09T07:51:51.120Z,10.63
2018-08-09T07:54:19.163Z,10.57
2018-08-09T07:56:47.345Z,9.03
2018-08-09T07:59:15.356Z,9.18
2018-08-09T08:01:43.374Z,10.67
2018-08-09T08:04:11.390Z,8.57
2018-08-09T08:06:39.392Z,8.33
2018-08-09T08:09:09.120Z,8.80
2018-08-09T08:11:37.172Z,8.93
2018-08-09T08:14:05.349Z,9.97
2018-08-09T08:16:33.444Z,9.67
2018-08-09T08:19:01.702Z,9.50
2018-08-09T08:21:29.725Z,9.10
2018-08-09T08:23:57.753Z,9.67
2018-08-09T08:26:25.840Z,9.70
2018-08-09T08:28:53.868Z,9.27
2018-08-09T08:31:21.968Z,8.03
2018-08-09T08:33:49.996Z,7.87
2018-08-09T08:36:18.162Z,7.67
2018-08-09T08:38:46.310Z,6.93
2018-08-09T08:41:14.540Z,7.87
2018-08-09T08:43:42.657Z,7.23
2018-08-09T08:46:10.721Z,6.07
2018-08-09T08:48:38.732Z,5.20
2018-08-09T08:51:06.747Z,6.37
2018-08-09T08:53:34.761Z,7.07
2018-08-09T08:56:02.768Z,7.63
2018-08-09T08:58:30.808Z,7.70
2018-08-09T09:00:59.380Z,8.20
2018-08-09T09:03:27.373Z,8.17
2018-08-09T09:05:55.393Z,6.73
2018-08-09T09:08:23.407Z,6.47
2018-08-09T09:10:54.776Z,6.83
2018-08-09T09:13:23.400Z,5.55
2018-08-09T09:15:51.428Z,5.47
2018-08-09T09:18:19.451Z,6.57
2018-08-09T09:20:47.497Z,6.10
2018-08-09T09:23:15.532Z,6.13
2018-08-09T09:25:43.853Z,6.43
2018-08-09T09:28:11.904Z,6.85
2018-08-09T09:30:39.925Z,6.15
2018-08-09T09:33:07.960Z,6.15
2018-08-09T09:35:36.032Z,6.17
2018-08-09T09:38:05.180Z,6.37
2018-08-09T09:40:33.250Z,5.23
2018-08-09T09:43:01.269Z,5.07
2018-08-09T09:45:29.337Z,4.60
2018-08-09T09:47:57.419Z,4.23
2018-08-09T09:50:25.444Z,4.00
2018-08-09T09:52:53.472Z,4.00
2018-08-09T09:55:21.488Z,5.47
2018-08-09T09:57:49.560Z,4.73
2018-08-09T10:00:22.881Z,4.12
2018-08-09T10:02:50.888Z,5.77
2018-08-09T10:05:19.116Z,5.90
2018-08-09T10:07:47.149Z,5.80
2018-08-09T10:10:15.164Z,6.40
2018-08-09T10:12:43.439Z,5.90
2018-08-09T10:15:11.790Z,6.10
2018-08-09T10:17:40.152Z,6.30
2018-08-09T10:20:08.853Z,6.13
2018-08-09T10:22:37.000Z,7.60
2018-08-09T10:25:05.541Z,6.97
2018-08-09T10:27:33.580Z,7.37
2018-08-09T10:30:01.676Z,7.17
2018-08-09T10:32:29.773Z,6.80
2018-08-09T10:34:57.793Z,6.93
2018-08-09T10:37:25.897Z,6.63
2018-08-09T10:39:53.975Z,7.07
2018-08-09T10:42:21.997Z,6.70
2018-08-09T10:44:50.130Z,7.60
2018-08-09T10:47:18.491Z,9.97
2018-08-09T10:49:46.530Z,11.33
2018-08-09T10:52:14.559Z,11.43
2018-08-09T10:54:42.693Z,10.30
2018-08-09T10:57:10.765Z,11.77
2018-08-09T10:59:38.785Z,11.90
2018-08-09T11:02:07.022Z,13.40
2018-08-09T11:04:35.060Z,12.07
2018-08-09T11:07:03.376Z,13.77
2018-08-09T11:09:31.395Z,16.87
2018-08-09T11:11:59.416Z,16.47
2018-08-09T11:14:27.454Z,17.57
2018-08-09T11:16:55.517Z,18.67
2018-08-09T11:19:23.736Z,19.63
2018-08-09T11:21:51.809Z,18.43
2018-08-09T11:24:20.841Z,20.05
2018-08-09T11:26:49.039Z,19.60
2018-08-09T11:29:17.056Z,18.75
2018-08-09T11:31:45.084Z,18.93
2018-08-09T11:34:13.392Z,21.57
2018-08-09T11:36:41.416Z,19.80
2018-08-09T11:39:11.243Z,18.12
2018-08-09T11:41:39.252Z,19.77
2018-08-09T11:44:07.618Z,20.87
2018-08-09T11:46:35.645Z,19.50
2018-08-09T11:49:03.966Z,21.80
2018-08-09T11:51:32.129Z,21.27
2018-08-09T11:54:00.393Z,19.90
2018-08-09T11:56:28.450Z,18.73
2018-08-09T11:58:56.548Z,20.47
2018-08-09T12:01:24.623Z,19.53
2018-08-09T12:03:53.151Z,19.43
2018-08-09T12:06:21.188Z,18.77
2018-08-09T12:08:49.208Z,18.87
2018-08-09T12:11:17.383Z,20.25
2018-08-09T12:13:45.457Z,19.50
2018-08-09T12:16:13.662Z,19.10
2018-08-09T12:18:41.721Z,17.63
2018-08-09T12:21:09.741Z,19.10
2018-08-09T12:23:37.774Z,19.53
2018-08-09T12:26:05.949Z,19.80
2018-08-09T12:28:34.119Z,21.30
2018-08-09T12:31:02.129Z,21.47
2018-08-09T12:33:30.484Z,19.10
2018-08-09T12:35:58.512Z,21.33
2018-08-09T12:38:26.544Z,23.07
2018-08-09T12:40:54.564Z,23.30
2018-08-09T12:43:22.588Z,21.73
2018-08-09T12:45:50.639Z,21.67
2018-08-09T12:48:18.894Z,22.93
2018-08-09T12:50:47.080Z,24.07
2018-08-09T12:53:15.040Z,19.73
2018-08-09T12:55:43.104Z,21.43
2018-08-09T12:58:11.117Z,20.47
2018-08-09T13:00:39.160Z,20.47
2018-08-09T13:03:07.172Z,19.57
2018-08-09T13:05:35.255Z,21.23
2018-08-09T13:08:03.282Z,19.37
2018-08-09T13:10:31.296Z,23.27
2018-08-09T13:12:59.336Z,21.13
2018-08-09T13:15:27.365Z,22.23
2018-08-09T13:17:55.445Z,22.87
2018-08-09T13:20:23.496Z,25.02
2018-08-09T13:22:52.092Z,22.57
2018-08-09T13:25:20.296Z,23.17
2018-08-09T13:27:48.797Z,22.23
2018-08-09T13:30:16.858Z,20.50
2018-08-09T13:32:45.265Z,22.17
2018-08-09T13:35:13.340Z,23.00
2018-08-09T13:37:41.522Z,23.07
2018-08-09T13:40:10.604Z,24.37
2018-08-09T13:42:39.301Z,23.57
2018-08-09T13:45:09.761Z,23.43
2018-08-09T13:47:37.828Z,22.93
2018-08-09T13:50:06.508Z,22.47
2018-08-09T13:52:35.076Z,22.60
2018-08-09T13:55:03.117Z,23.87
2018-08-09T13:57:31.140Z,25.30
2018-08-09T13:59:59.173Z,23.83
2018-08-09T14:02:27.480Z,21.80
2018-08-09T14:04:55.512Z,27.87
2018-08-09T14:07:23.620Z,24.97
2018-08-09T14:09:51.676Z,25.33
2018-08-09T14:12:19.755Z,24.40
2018-08-09T14:14:47.835Z,24.83
2018-08-09T14:17:15.866Z,25.83
2018-08-09T14:19:43.896Z,24.50
2018-08-09T14:22:11.917Z,21.50
2018-08-09T14:24:40.073Z,20.83
2018-08-09T14:27:08.001Z,20.60
2018-08-09T14:29:36.281Z,23.03
2018-08-09T14:32:05.173Z,20.30
2018-08-09T14:34:33.212Z,24.63
2018-08-09T14:37:01.264Z,18.60
2018-08-09T14:39:29.716Z,21.63
2018-08-09T14:41:58.084Z,21.50
2018-08-09T14:44:26.218Z,23.47
2018-08-09T14:46:54.269Z,22.47
2018-08-09T14:49:22.316Z,22.53
2018-08-09T14:51:50.440Z,25.03
2018-08-09T14:54:18.464Z,21.63
2018-08-09T14:56:46.589Z,34.30
2018-08-09T14:59:14.605Z,29.63
2018-08-09T15:01:42.729Z,25.87
2018-08-09T15:04:10.813Z,20.63
2018-08-09T15:06:39.400Z,22.33
2018-08-09T15:09:09.057Z,20.87
2018-08-09T15:11:37.229Z,20.07
2018-08-09T15:14:06.257Z,19.13
2018-08-09T15:16:34.301Z,18.27
2018-08-09T15:19:02.889Z,21.23
2018-08-09T15:21:31.149Z,20.20
2018-08-09T15:23:59.175Z,21.53
2018-08-09T15:26:27.428Z,18.83
2018-08-09T15:28:55.464Z,18.93
2018-08-09T15:31:23.572Z,16.13
2018-08-09T15:33:51.629Z,15.87
2018-08-09T15:36:19.636Z,15.75
2018-08-09T15:38:47.653Z,14.60
2018-08-09T15:41:15.751Z,14.77
2018-08-09T15:43:43.922Z,14.47
2018-08-09T15:46:11.944Z,15.87
2018-08-09T15:48:39.963Z,18.20
2018-08-09T15:51:07.992Z,20.90
2018-08-09T15:53:36.214Z,21.50
2018-08-09T15:56:04.624Z,20.88
2018-08-09T15:58:32.677Z,20.60
2018-08-09T16:01:00.730Z,21.63
2018-08-09T16:03:28.862Z,15.43
2018-08-09T16:05:56.877Z,11.00
2018-08-09T16:08:24.897Z,11.40
2018-08-09T16:10:52.965Z,12.03
2018-08-09T16:13:21.060Z,14.40
2018-08-09T16:15:49.072Z,14.67
2018-08-09T16:18:17.109Z,15.53
2018-08-09T16:20:45.202Z,13.40
2018-08-09T16:23:13.357Z,13.50
2018-08-09T16:25:41.404Z,12.77
2018-08-09T16:28:09.509Z,13.47
2018-08-09T16:30:37.593Z,12.83
2018-08-09T16:33:05.908Z,12.80
2018-08-09T16:35:34.125Z,12.73
2018-08-09T16:38:02.416Z,13.37
2018-08-09T16:40:30.472Z,13.33
2018-08-09T16:42:58.565Z,11.80
2018-08-09T16:45:26.628Z,11.20
2018-08-09T16:47:54.891Z,12.50
2018-08-09T16:50:24.592Z,11.60
2018-08-09T16:52:52.716Z,11.57
2018-08-09T16:55:22.036Z,12.20
2018-08-09T16:57:50.365Z,12.23
2018-08-09T17:00:19.978Z,11.80
2018-08-09T17:02:48.641Z,11.23
2018-08-09T17:05:20.961Z,11.25
2018-08-09T17:07:49.022Z,10.40
2018-08-09T17:10:18.363Z,10.33
2018-08-09T17:12:46.676Z,11.13
2018-08-09T17:15:19.563Z,11.30
2018-08-09T17:17:47.583Z,10.07
2018-08-09T17:20:19.805Z,10.70
2018-08-09T17:22:47.836Z,11.07
2018-08-09T17:25:15.970Z,9.88
2018-08-09T17:27:45.021Z,10.13
2018-08-09T17:30:14.393Z,10.30
2018-08-09T17:32:42.620Z,10.70
2018-08-09T17:35:11.760Z,10.13
2018-08-09T17:37:40.017Z,9.67
2018-08-09T17:40:11.089Z,9.90
2018-08-09T17:42:39.143Z,9.93
2018-08-09T17:45:08.961Z,11.63
2018-08-09T17:47:36.993Z,10.23
2018-08-09T17:50:05.877Z,9.13
2018-08-09T17:52:34.145Z,9.47
2018-08-09T17:55:02.589Z,7.90
2018-08-09T17:57:30.692Z,7.57
2018-08-09T17:59:58.709Z,7.83
2018-08-09T18:02:26.832Z,7.20
2018-08-09T18:04:54.935Z,6.87
2018-08-09T18:07:22.981Z,6.65
2018-08-09T18:09:51.001Z,6.47
2018-08-09T18:12:19.025Z,5.90
2018-08-09T18:14:47.193Z,5.40
2018-08-09T18:17:15.208Z,5.47
2018-08-09T18:19:43.256Z,4.90
2018-08-09T18:22:12.218Z,5.10
2018-08-09T18:24:40.263Z,4.90
2018-08-09T18:27:08.536Z,4.67
2018-08-09T18:29:36.584Z,4.33
2018-08-09T18:32:04.792Z,4.13
2018-08-09T18:34:33.090Z,4.40
2018-08-09T18:37:01.257Z,4.90
2018-08-09T18:39:29.349Z,3.43
2018-08-09T18:41:57.392Z,3.10
2018-08-09T18:44:25.568Z,3.40
2018-08-09T18:46:53.583Z,3.20
2018-08-09T18:49:21.592Z,2.30
2018-08-09T18:51:49.779Z,2.93
2018-08-09T18:54:17.800Z,3.07
2018-08-09T18:56:45.823Z,3.53
2018-08-09T18:59:13.889Z,4.30
2018-08-09T19:01:42.533Z,4.60
2018-08-09T19:04:10.540Z,4.87
2018-08-09T19:06:38.575Z,5.77
2018-08-09T19:09:08.151Z,5.17
2018-08-09T19:11:36.165Z,6.10
2018-08-09T19:14:04.872Z,6.63
2018-08-09T19:16:32.937Z,7.20
2018-08-09T19:19:01.369Z,7.30
2018-08-09T19:21:29.429Z,6.47
2018-08-09T19:23:57.464Z,6.60
2018-08-09T19:26:25.504Z,6.30
2018-08-09T19:28:53.532Z,6.07
2018-08-09T19:31:21.544Z,6.07
2018-08-09T19:33:49.577Z,6.20
2018-08-09T19:36:17.638Z,4.83
2018-08-09T19:38:46.098Z,4.07
2018-08-09T19:41:14.054Z,4.20
2018-08-09T19:43:42.128Z,3.47
2018-08-09T19:46:10.164Z,3.10
2018-08-09T19:48:38.212Z,2.50
2018-08-09T19:51:06.322Z,2.67
2018-08-09T19:53:34.356Z,2.60
2018-08-09T19:56:02.389Z,2.40
2018-08-09T19:58:30.410Z,2.80
2018-08-09T20:00:58.436Z,3.23
2018-08-09T20:03:26.451Z,3.10
2018-08-09T20:05:54.493Z,3.87
2018-08-09T20:08:22.528Z,3.57
2018-08-09T20:10:50.576Z,3.30
2018-08-09T20:13:18.610Z,3.50
2018-08-09T20:15:46.788Z,3.30
2018-08-09T20:18:14.805Z,3.27
2018-08-09T20:20:42.829Z,3.03
2018-08-09T20:23:10.869Z,2.87
2018-08-09T20:25:38.894Z,3.43
2018-08-09T20:28:06.938Z,3.83
2018-08-09T20:30:34.949Z,4.23
2018-08-09T20:33:02.962Z,3.97
2018-08-09T20:35:30.983Z,4.13
2018-08-09T20:37:58.996Z,4.73
2018-08-09T20:40:27.001Z,4.47
2018-08-09T20:42:55.212Z,5.33
2018-08-09T20:45:24.204Z,5.47
2018-08-09T20:47:52.520Z,5.07
2018-08-09T20:50:24.560Z,6.13
2018-08-09T20:52:52.727Z,5.63
2018-08-09T20:55:21.050Z,6.30
2018-08-09T20:57:49.998Z,7.20
2018-08-09T21:00:26.716Z,7.97
2018-08-09T21:02:56.009Z,7.35
2018-08-09T21:05:28.452Z,7.10
2018-08-09T21:07:56.796Z,7.20
2018-08-09T21:10:25.395Z,7.67
2018-08-09T21:12:53.420Z,9.20
2018-08-09T21:15:21.785Z,9.43
2018-08-09T21:17:49.976Z,9.57
2018-08-09T21:20:18.050Z,9.73
2018-08-09T21:22:47.300Z,10.80
2018-08-09T21:25:15.364Z,11.78
2018-08-09T21:27:43.948Z,11.63
2018-08-09T21:30:14.377Z,10.48
2018-08-09T21:32:42.432Z,11.10
2018-08-09T21:35:10.922Z,9.63
2018-08-09T21:37:39.615Z,9.07
2018-08-09T21:40:08.962Z,9.43
2018-08-09T21:42:36.996Z,8.83
2018-08-09T21:45:07.252Z,7.93
2018-08-09T21:47:35.572Z,8.73
2018-08-09T21:50:03.743Z,7.80
2018-08-09T21:52:31.780Z,8.90
2018-08-09T21:55:00.544Z,7.63
2018-08-09T21:57:28.564Z,7.27
2018-08-09T21:59:56.596Z,7.67
2018-08-09T22:02:24.616Z,6.93
2018-08-09T22:04:58.004Z,7.97
2018-08-09T22:07:31.289Z,7.50
2018-08-09T22:10:04.560Z,7.67
2018-08-09T22:12:38.149Z,8.00
2018-08-09T22:15:11.668Z,9.30
2018-08-09T22:17:45.153Z,9.17
2018-08-09T22:20:18.575Z,9.98
2018-08-09T22:22:46.598Z,10.07
2018-08-09T22:25:14.865Z,9.93
2018-08-09T22:27:43.478Z,8.97
2018-08-09T22:30:14.464Z,9.08
2018-08-09T22:32:43.980Z,9.03
2018-08-09T22:35:12.037Z,8.80
2018-08-09T22:37:40.168Z,9.73
2018-08-09T22:40:08.210Z,8.93
2018-08-09T22:42:36.576Z,10.00
2018-08-09T22:45:04.921Z,8.90
2018-08-09T22:47:32.943Z,6.30
2018-08-09T22:50:00.961Z,6.00
2018-08-09T22:52:29.160Z,4.13
2018-08-09T22:54:57.256Z,4.47
2018-08-09T22:57:25.312Z,4.47
2018-08-09T22:59:53.336Z,4.27
2018-08-09T23:02:21.361Z,5.10
2018-08-09T23:04:49.424Z,5.27
2018-08-09T23:07:17.407Z,4.67
2018-08-09T23:09:45.673Z,4.43
2018-08-09T23:12:13.692Z,4.57
2018-08-09T23:14:41.704Z,4.23
2018-08-09T23:17:09.733Z,4.60
2018-08-09T23:19:38.177Z,4.07
2018-08-09T23:22:06.238Z,4.03
2018-08-09T23:24:34.236Z,4.43
2018-08-09T23:27:02.472Z,4.20
2018-08-09T23:29:30.553Z,3.90
2018-08-09T23:31:58.563Z,4.10
2018-08-09T23:34:26.592Z,4.37
2018-08-09T23:36:54.612Z,4.47
2018-08-09T23:39:22.638Z,4.90
2018-08-09T23:41:50.899Z,4.57
2018-08-09T23:44:18.916Z,6.97
2018-08-09T23:46:47.093Z,6.77
2018-08-09T23:49:15.154Z,7.63
2018-08-09T23:51:43.492Z,8.07
2018-08-09T23:54:11.523Z,9.15
2018-08-09T23:56:39.536Z,9.63
2018-08-09T23:59:07.596Z,9.23
